Terminal Aerodrome Forecast
Issued by NWS

Home | Current Version | Previous Version | Text Only | Print | Product List | Glossary On
Versions: 1 2 3 4 5 6 7 8 9 10 11 12 13 14 15 16
000
FTUS43 KEAX 251126
TAFSTJ
TAF
KSTJ 251126Z 2512/2612 36010KT 1 1/2SM BR OVC002
     FM251400 01011KT 3SM BR VCSH OVC005
     FM251800 35009KT P6SM VCSH OVC008
     FM260300 34004KT P6SM OVC010=

USA.gov is the U.S. government's official web portal to all federal, state and local government web resources and services.